Time;durP1;ratioP1;P1;durP2;ratioP2;P2;SDS_P1;SDS_P2;PMS_P1;PMS_P2;Temp;Humidity;BMP_temperature;BMP_pressure;BME280_temperature;BME280_humidity;BME280_pressure;Samples;Min_cycle;Max_cycle;Signal;HPM_P1;HPM_P2
2022/01/14 00:01:50;;;;;;;39.47;19.07;;;;;;;;;;5016013;28;20217;-59
2022/01/14 00:04:16;;;;;;;39.97;17.83;;;;;;;;;;5012783;28;20223;-59
2022/01/14 00:06:41;;;;;;;38.47;18.37;;;;;;;;;;4979540;28;20216;-59
2022/01/14 00:09:08;;;;;;;31.50;17.03;;;;;;;;;;5011746;28;20579;-59
2022/01/14 00:11:34;;;;;;;37.43;17.97;;;;;;;;;;4995918;28;20320;-59
2022/01/14 00:16:31;;;;;;;44.00;18.23;;;;;;;;;;5011947;28;20814;-59
2022/01/14 00:18:58;;;;;;;38.83;18.83;;;;;;;;;;5012155;28;20287;-59
2022/01/14 00:21:23;;;;;;;38.63;18.30;;;;;;;;;;5012574;28;20291;-59
2022/01/14 00:23:52;;;;;;;40.70;18.13;;;;;;;;;;5012051;28;20282;-59
2022/01/14 00:31:53;;;;;;;38.60;18.40;;;;;;;;;;5012191;28;20223;-59
2022/01/14 00:34:18;;;;;;;40.20;18.43;;;;;;;;;;5012204;28;20298;-59
2022/01/14 00:36:43;;;;;;;37.13;18.50;;;;;;;;;;5012085;28;20630;-59
2022/01/14 00:39:10;;;;;;;36.17;17.90;;;;;;;;;;5012045;28;20227;-59
2022/01/14 00:41:35;;;;;;;41.73;19.30;;;;;;;;;;5012796;28;20299;-59
2022/01/14 00:44:02;;;;;;;33.97;17.27;;;;;;;;;;4977490;28;20292;-60
2022/01/14 00:46:28;;;;;;;32.60;17.60;;;;;;;;;;5031626;28;20231;-59
2022/01/14 00:48:53;;;;;;;33.00;18.47;;;;;;;;;;5014760;28;20218;-59
2022/01/14 00:51:18;;;;;;;40.33;18.90;;;;;;;;;;5013386;28;20332;-59
2022/01/14 00:53:43;;;;;;;35.97;17.67;;;;;;;;;;5032262;28;20214;-59
2022/01/14 00:56:25;;;;;;;36.87;18.30;;;;;;;;;;5031829;28;20285;-59
2022/01/14 01:01:35;;;;;;;44.30;20.70;;;;;;;;;;5031868;28;20219;-59
2022/01/14 01:04:00;;;;;;;36.53;19.57;;;;;;;;;;5032201;28;20208;-59
2022/01/14 01:06:25;;;;;;;35.80;18.87;;;;;;;;;;5013578;28;20587;-59
2022/01/14 01:08:52;;;;;;;33.20;17.97;;;;;;;;;;5014521;28;20683;-59
2022/01/14 01:11:24;;;;;;;38.10;19.83;;;;;;;;;;5031697;28;20315;-59
2022/01/14 01:13:58;;;;;;;39.40;19.57;;;;;;;;;;5031610;28;20674;-59
2022/01/14 01:16:23;;;;;;;37.37;19.20;;;;;;;;;;5009439;28;20211;-59
2022/01/14 01:18:49;;;;;;;35.27;19.27;;;;;;;;;;5011868;28;20216;-59
2022/01/14 01:21:14;;;;;;;35.03;19.07;;;;;;;;;;4977943;28;20270;-59
2022/01/14 01:23:39;;;;;;;36.67;18.73;;;;;;;;;;5029291;28;20395;-59
2022/01/14 01:26:13;;;;;;;36.70;20.07;;;;;;;;;;5013075;28;20216;-59
2022/01/14 01:28:53;;;;;;;36.67;19.97;;;;;;;;;;5031935;28;20246;-59
2022/01/14 01:31:39;;;;;;;37.60;19.30;;;;;;;;;;5035093;28;20223;-59
2022/01/14 01:34:05;;;;;;;40.97;20.33;;;;;;;;;;5035030;28;20203;-59
2022/01/14 01:36:30;;;;;;;37.70;18.87;;;;;;;;;;5036030;28;20204;-59
2022/01/14 01:38:55;;;;;;;34.27;17.97;;;;;;;;;;5035826;28;20211;-59
2022/01/14 01:41:21;;;;;;;36.27;19.73;;;;;;;;;;5034434;28;20295;-59
2022/01/14 01:43:51;;;;;;;33.77;18.83;;;;;;;;;;5036084;28;20222;-59
2022/01/14 01:46:16;;;;;;;35.53;18.83;;;;;;;;;;5034957;28;20295;-59
2022/01/14 01:48:41;;;;;;;35.13;18.97;;;;;;;;;;5034286;28;20682;-59
2022/01/14 01:51:06;;;;;;;41.47;20.03;;;;;;;;;;5017338;28;20642;-59
2022/01/14 01:53:32;;;;;;;40.53;20.87;;;;;;;;;;5035771;28;20215;-59
2022/01/14 01:55:57;;;;;;;33.43;19.13;;;;;;;;;;5034818;28;20655;-59
2022/01/14 01:58:22;;;;;;;35.37;20.30;;;;;;;;;;5035304;28;20204;-59
2022/01/14 02:00:47;;;;;;;36.80;20.07;;;;;;;;;;5035283;28;20208;-59
2022/01/14 02:03:13;;;;;;;37.27;20.13;;;;;;;;;;5034312;28;20673;-60
2022/01/14 02:05:39;;;;;;;39.63;20.50;;;;;;;;;;5017818;28;20219;-60
2022/01/14 02:08:04;;;;;;;38.10;20.80;;;;;;;;;;5034230;28;20204;-60
2022/01/14 02:10:29;;;;;;;41.07;20.47;;;;;;;;;;5017635;28;20569;-59
2022/01/14 02:12:54;;;;;;;40.70;21.33;;;;;;;;;;5035488;28;20227;-59
2022/01/14 02:15:44;;;;;;;36.20;20.17;;;;;;;;;;5034031;28;20655;-59
2022/01/14 02:23:22;;;;;;;44.40;22.07;;;;;;;;;;5028580;28;20231;-59
2022/01/14 02:25:48;;;;;;;35.63;19.67;;;;;;;;;;5035033;28;20219;-59
2022/01/14 02:28:14;;;;;;;41.63;20.67;;;;;;;;;;5034630;28;20215;-59
2022/01/14 02:30:39;;;;;;;42.93;21.27;;;;;;;;;;5034079;28;20404;-59
2022/01/14 02:33:05;;;;;;;34.30;19.20;;;;;;;;;;5034595;28;20228;-60
2022/01/14 02:35:30;;;;;;;38.13;20.50;;;;;;;;;;5034811;28;20580;-59
2022/01/14 02:37:55;;;;;;;44.33;21.83;;;;;;;;;;5033896;28;20223;-59
2022/01/14 02:40:21;;;;;;;41.23;21.60;;;;;;;;;;5034720;28;20212;-59
2022/01/14 02:42:48;;;;;;;43.33;21.23;;;;;;;;;;5033867;28;20204;-59
2022/01/14 02:45:14;;;;;;;41.57;21.30;;;;;;;;;;5033358;28;20757;-60
2022/01/14 02:47:39;;;;;;;38.60;21.13;;;;;;;;;;5034487;28;20207;-59
2022/01/14 02:50:07;;;;;;;46.07;22.00;;;;;;;;;;5034208;28;20584;-59
2022/01/14 02:52:55;;;;;;;41.63;21.63;;;;;;;;;;5034182;28;20220;-59
2022/01/14 02:55:22;;;;;;;39.67;21.47;;;;;;;;;;5034465;28;20226;-59
2022/01/14 02:57:48;;;;;;;38.83;20.83;;;;;;;;;;5033690;28;20291;-59
2022/01/14 03:00:16;;;;;;;41.63;21.63;;;;;;;;;;5030728;28;20212;-59
2022/01/14 03:02:42;;;;;;;36.37;20.23;;;;;;;;;;5014437;28;20204;-60
2022/01/14 03:05:07;;;;;;;37.20;21.00;;;;;;;;;;5013652;28;20212;-59
2022/01/14 03:07:33;;;;;;;41.73;21.73;;;;;;;;;;5014516;28;20239;-59
2022/01/14 03:09:58;;;;;;;42.97;21.77;;;;;;;;;;5014452;28;20221;-59
2022/01/14 03:12:23;;;;;;;34.87;19.57;;;;;;;;;;5013157;28;20224;-59
2022/01/14 03:14:48;;;;;;;39.03;20.10;;;;;;;;;;4997020;28;20571;-59
2022/01/14 03:17:14;;;;;;;43.00;22.00;;;;;;;;;;5013457;28;20208;-59
2022/01/14 03:19:39;;;;;;;41.83;21.87;;;;;;;;;;5013403;28;20212;-59
2022/01/14 03:22:17;;;;;;;39.70;20.53;;;;;;;;;;5013700;28;20216;-60
2022/01/14 03:27:07;;;;;;;36.70;19.83;;;;;;;;;;5013097;28;20200;-59
2022/01/14 03:29:33;;;;;;;40.00;21.43;;;;;;;;;;4996374;28;20212;-59
2022/01/14 03:31:58;;;;;;;36.00;19.93;;;;;;;;;;5013962;28;20295;-59
2022/01/14 03:34:23;;;;;;;39.03;19.67;;;;;;;;;;5012707;28;20555;-59
2022/01/14 03:36:48;;;;;;;41.90;21.37;;;;;;;;;;4996426;28;20575;-59
2022/01/14 03:39:14;;;;;;;37.43;20.23;;;;;;;;;;5013173;28;20215;-60
2022/01/14 03:41:39;;;;;;;41.53;21.57;;;;;;;;;;5013378;28;20263;-59
2022/01/14 03:44:04;;;;;;;40.13;19.83;;;;;;;;;;5013076;28;20691;-60
2022/01/14 03:46:30;;;;;;;41.33;21.27;;;;;;;;;;5032573;28;20224;-59
2022/01/14 03:48:55;;;;;;;46.20;22.43;;;;;;;;;;5033180;28;20216;-59
2022/01/14 03:51:21;;;;;;;43.27;19.80;;;;;;;;;;5033103;28;20377;-59
2022/01/14 03:53:47;;;;;;;38.80;19.03;;;;;;;;;;5031455;28;20216;-59
2022/01/14 03:56:12;;;;;;;34.17;19.13;;;;;;;;;;5032998;28;20606;-59
2022/01/14 03:58:38;;;;;;;45.03;21.77;;;;;;;;;;5033556;28;20261;-59
2022/01/14 04:01:03;;;;;;;39.63;20.33;;;;;;;;;;5032023;28;20294;-59
2022/01/14 04:03:28;;;;;;;41.20;21.10;;;;;;;;;;5015582;28;20655;-59
2022/01/14 04:05:54;;;;;;;37.53;18.83;;;;;;;;;;5033192;28;20243;-59
2022/01/14 04:08:19;;;;;;;36.23;20.33;;;;;;;;;;5031906;28;20219;-59
2022/01/14 04:10:46;;;;;;;35.37;19.83;;;;;;;;;;5033252;28;20278;-59
2022/01/14 04:13:18;;;;;;;44.03;20.03;;;;;;;;;;5032653;28;20208;-59
2022/01/14 04:15:46;;;;;;;40.00;19.57;;;;;;;;;;5031841;28;20212;-59
2022/01/14 04:18:13;;;;;;;39.47;20.33;;;;;;;;;;5012828;28;20217;-59
2022/01/14 04:20:38;;;;;;;46.20;21.90;;;;;;;;;;5013358;28;20215;-59
2022/01/14 04:23:04;;;;;;;41.17;20.27;;;;;;;;;;5024096;28;20216;-60
2022/01/14 04:25:30;;;;;;;39.27;19.67;;;;;;;;;;5032717;28;20204;-59
2022/01/14 04:27:56;;;;;;;36.90;18.43;;;;;;;;;;5015325;28;20660;-59
2022/01/14 04:30:22;;;;;;;34.60;18.27;;;;;;;;;;5031348;28;20294;-60
2022/01/14 04:32:47;;;;;;;39.87;19.83;;;;;;;;;;5033192;28;20690;-59
2022/01/14 04:35:12;;;;;;;38.77;19.93;;;;;;;;;;5032042;28;20203;-59
2022/01/14 04:37:38;;;;;;;37.77;19.87;;;;;;;;;;5014448;28;20215;-59
2022/01/14 04:40:03;;;;;;;35.03;19.40;;;;;;;;;;5014293;28;20211;-60
2022/01/14 04:42:29;;;;;;;38.37;18.63;;;;;;;;;;5015026;28;20207;-60
2022/01/14 04:44:56;;;;;;;44.23;21.93;;;;;;;;;;5031757;28;20270;-59
2022/01/14 04:47:43;;;;;;;34.77;18.73;;;;;;;;;;5031997;28;20638;-59
2022/01/14 04:50:09;;;;;;;45.43;22.27;;;;;;;;;;5031041;28;20203;-59
2022/01/14 04:52:34;;;;;;;38.53;20.27;;;;;;;;;;5014758;28;20234;-59
2022/01/14 04:54:59;;;;;;;38.87;20.43;;;;;;;;;;5032366;28;20219;-59
2022/01/14 04:57:25;;;;;;;40.90;20.20;;;;;;;;;;5031067;28;20242;-60
2022/01/14 04:59:50;;;;;;;42.50;21.57;;;;;;;;;;5014666;28;20254;-59
2022/01/14 05:02:15;;;;;;;38.23;20.43;;;;;;;;;;5012219;28;20741;-59
2022/01/14 05:04:42;;;;;;;42.07;22.17;;;;;;;;;;5011162;28;20295;-59
2022/01/14 05:07:12;;;;;;;49.63;23.03;;;;;;;;;;5012174;28;20334;-60
2022/01/14 05:09:42;;;;;;;47.63;23.63;;;;;;;;;;5012545;28;20271;-59
2022/01/14 05:12:09;;;;;;;56.60;24.00;;;;;;;;;;5011421;28;20239;-60
2022/01/14 05:14:35;;;;;;;49.33;21.87;;;;;;;;;;5012583;28;20762;-59
2022/01/14 05:17:00;;;;;;;43.87;21.77;;;;;;;;;;5022635;28;20208;-60
2022/01/14 05:19:26;;;;;;;43.70;21.77;;;;;;;;;;5031359;28;20212;-59
2022/01/14 05:21:51;;;;;;;49.13;21.13;;;;;;;;;;5012366;28;20212;-59
2022/01/14 05:24:16;;;;;;;45.87;21.40;;;;;;;;;;5012075;28;20283;-59
2022/01/14 05:26:41;;;;;;;40.93;20.00;;;;;;;;;;5011875;28;20205;-59
2022/01/14 05:29:07;;;;;;;40.43;21.00;;;;;;;;;;4994384;28;20684;-59
2022/01/14 05:31:40;;;;;;;47.60;21.90;;;;;;;;;;5012419;28;20224;-60
2022/01/14 05:34:05;;;;;;;48.53;21.33;;;;;;;;;;5011219;28;20255;-60
2022/01/14 05:36:31;;;;;;;44.37;21.50;;;;;;;;;;4994515;28;20235;-60
2022/01/14 05:38:56;;;;;;;41.77;21.77;;;;;;;;;;5011760;28;20216;-60
2022/01/14 05:41:21;;;;;;;43.40;22.10;;;;;;;;;;5011750;28;20236;-60
2022/01/14 05:43:46;;;;;;;44.97;22.83;;;;;;;;;;5012470;28;20683;-60
2022/01/14 05:46:12;;;;;;;46.87;22.17;;;;;;;;;;5011066;28;20279;-60
2022/01/14 05:48:37;;;;;;;43.77;20.57;;;;;;;;;;5012419;28;20208;-60
2022/01/14 05:51:02;;;;;;;45.40;20.47;;;;;;;;;;5011602;28;20703;-60
2022/01/14 05:53:28;;;;;;;57.20;21.60;;;;;;;;;;5011382;28;20209;-60
2022/01/14 05:55:53;;;;;;;68.70;22.23;;;;;;;;;;5012354;28;20208;-60
2022/01/14 05:58:18;;;;;;;57.20;19.93;;;;;;;;;;5011581;28;20209;-60
2022/01/14 06:00:43;;;;;;;51.80;22.00;;;;;;;;;;5011598;28;20219;-59
2022/01/14 06:03:09;;;;;;;48.90;22.87;;;;;;;;;;5011902;28;20208;-60
2022/01/14 06:05:34;;;;;;;61.80;21.53;;;;;;;;;;5012050;28;20674;-60
2022/01/14 06:07:59;;;;;;;51.60;22.87;;;;;;;;;;4993478;28;20213;-60
2022/01/14 06:10:24;;;;;;;56.33;22.17;;;;;;;;;;5011536;28;20216;-60
2022/01/14 06:12:50;;;;;;;46.53;22.27;;;;;;;;;;5012178;28;20222;-60
2022/01/14 06:15:16;;;;;;;55.07;21.60;;;;;;;;;;5011084;28;20209;-60
2022/01/14 06:17:41;;;;;;;41.70;19.33;;;;;;;;;;5014389;28;20240;-60
2022/01/14 06:20:06;;;;;;;51.03;19.50;;;;;;;;;;5015261;28;20243;-60
2022/01/14 06:22:32;;;;;;;40.70;19.50;;;;;;;;;;5016459;28;20212;-60
2022/01/14 06:24:58;;;;;;;53.30;20.77;;;;;;;;;;5035478;28;20219;-60
2022/01/14 06:27:24;;;;;;;55.10;19.80;;;;;;;;;;5034467;28;20307;-60
2022/01/14 06:29:49;;;;;;;76.57;23.30;;;;;;;;;;5034384;28;20286;-60
2022/01/14 06:32:14;;;;;;;48.97;19.07;;;;;;;;;;5034520;28;20238;-60
2022/01/14 06:34:39;;;;;;;39.23;18.97;;;;;;;;;;5035009;28;20211;-60
2022/01/14 06:37:05;;;;;;;39.90;19.60;;;;;;;;;;5033526;28;20232;-60
2022/01/14 06:39:30;;;;;;;45.60;20.27;;;;;;;;;;5034600;28;20667;-60
2022/01/14 06:41:55;;;;;;;46.13;19.90;;;;;;;;;;5017361;28;20215;-60
2022/01/14 06:44:20;;;;;;;52.60;18.97;;;;;;;;;;5033292;28;20239;-60
2022/01/14 06:46:46;;;;;;;42.17;20.37;;;;;;;;;;5016607;28;20920;-58
2022/01/14 06:49:11;;;;;;;53.53;19.90;;;;;;;;;;5034122;28;20219;-58
2022/01/14 06:51:37;;;;;;;41.97;18.53;;;;;;;;;;5016132;28;20223;-60
2022/01/14 06:54:02;;;;;;;45.77;18.77;;;;;;;;;;5016123;28;20216;-59
2022/01/14 06:56:27;;;;;;;55.37;24.23;;;;;;;;;;5033967;28;20677;-59
2022/01/14 06:58:52;;;;;;;77.17;22.50;;;;;;;;;;5034291;28;20211;-59
2022/01/14 07:01:18;;;;;;;35.10;18.17;;;;;;;;;;5022245;28;20214;-59
2022/01/14 07:03:43;;;;;;;48.33;21.63;;;;;;;;;;5014019;28;20215;-59
2022/01/14 07:06:10;;;;;;;48.17;22.57;;;;;;;;;;5014220;28;20208;-59
2022/01/14 07:08:35;;;;;;;51.57;22.33;;;;;;;;;;5014217;28;20216;-59
2022/01/14 07:11:01;;;;;;;59.37;21.40;;;;;;;;;;5013252;28;20216;-61
2022/01/14 07:13:26;;;;;;;39.53;19.97;;;;;;;;;;5014457;28;20579;-59
2022/01/14 07:15:51;;;;;;;43.33;18.93;;;;;;;;;;5014642;28;20296;-60
2022/01/14 07:18:17;;;;;;;42.50;18.87;;;;;;;;;;4995470;28;20217;-59
2022/01/14 07:20:42;;;;;;;40.50;18.20;;;;;;;;;;5014386;28;20618;-59
2022/01/14 07:23:07;;;;;;;42.97;22.30;;;;;;;;;;5013698;28;20228;-60
2022/01/14 07:25:33;;;;;;;36.83;18.43;;;;;;;;;;5013447;28;20220;-59
2022/01/14 07:27:58;;;;;;;39.83;19.20;;;;;;;;;;5014096;28;20208;-58
2022/01/14 07:30:23;;;;;;;44.33;19.03;;;;;;;;;;5013589;28;20220;-59
2022/01/14 07:32:49;;;;;;;43.97;19.43;;;;;;;;;;5030914;28;20757;-59
2022/01/14 07:35:14;;;;;;;47.87;20.50;;;;;;;;;;5014092;28;20212;-59
2022/01/14 07:37:39;;;;;;;37.60;18.50;;;;;;;;;;5013783;28;20220;-59
2022/01/14 07:40:05;;;;;;;49.53;20.80;;;;;;;;;;5012419;28;20216;-59
2022/01/14 07:42:30;;;;;;;43.63;20.53;;;;;;;;;;5014214;28;20700;-59
2022/01/14 07:44:55;;;;;;;37.23;19.47;;;;;;;;;;5013478;28;20683;-59
2022/01/14 07:47:21;;;;;;;44.73;21.03;;;;;;;;;;4995259;28;20205;-59
2022/01/14 07:49:47;;;;;;;39.87;19.80;;;;;;;;;;5013555;28;20232;-59
2022/01/14 07:52:12;;;;;;;39.43;20.00;;;;;;;;;;5013134;28;20225;-59
2022/01/14 07:54:37;;;;;;;45.40;21.63;;;;;;;;;;4997584;28;20223;-59
2022/01/14 07:57:03;;;;;;;43.20;19.93;;;;;;;;;;5016937;28;20211;-58
2022/01/14 07:59:29;;;;;;;47.17;20.60;;;;;;;;;;5013427;28;20235;-59
2022/01/14 08:01:55;;;;;;;34.60;19.40;;;;;;;;;;5015379;28;20219;-58
2022/01/14 08:04:20;;;;;;;42.57;20.47;;;;;;;;;;5000052;28;20224;-59
2022/01/14 08:06:49;;;;;;;35.57;19.23;;;;;;;;;;5022192;28;20220;-58
2022/01/14 08:09:14;;;;;;;40.13;19.67;;;;;;;;;;5017424;28;20208;-59
2022/01/14 08:11:39;;;;;;;37.17;20.43;;;;;;;;;;5013447;28;20208;-60
2022/01/14 08:14:05;;;;;;;40.40;20.47;;;;;;;;;;5012277;28;20702;-59
2022/01/14 08:16:30;;;;;;;37.57;20.63;;;;;;;;;;5018813;28;20203;-59
2022/01/14 08:18:55;;;;;;;41.33;20.70;;;;;;;;;;5033031;28;20204;-59
2022/01/14 08:21:21;;;;;;;34.57;18.97;;;;;;;;;;5022092;28;20224;-59
2022/01/14 08:23:46;;;;;;;39.77;20.03;;;;;;;;;;5015887;28;20295;-59
2022/01/14 08:26:11;;;;;;;32.07;18.00;;;;;;;;;;5032438;28;20566;-59
2022/01/14 08:28:37;;;;;;;39.20;20.83;;;;;;;;;;5024063;28;20196;-59
2022/01/14 08:31:02;;;;;;;36.70;19.03;;;;;;;;;;5011222;28;20304;-60
2022/01/14 08:33:27;;;;;;;39.60;20.60;;;;;;;;;;5013086;28;20215;-59
2022/01/14 08:35:53;;;;;;;38.23;20.40;;;;;;;;;;5012284;28;20306;-59
2022/01/14 08:38:18;;;;;;;37.33;20.63;;;;;;;;;;5012426;28;20251;-59
2022/01/14 08:40:43;;;;;;;43.07;21.03;;;;;;;;;;5011623;28;20220;-59
2022/01/14 08:43:09;;;;;;;36.40;19.67;;;;;;;;;;5009875;28;20284;-59
2022/01/14 08:45:34;;;;;;;45.13;20.47;;;;;;;;;;5024270;28;20409;-59
2022/01/14 08:48:00;;;;;;;41.50;21.27;;;;;;;;;;5014951;28;20294;-59
2022/01/14 08:50:26;;;;;;;41.47;21.53;;;;;;;;;;5031105;28;20218;-59
2022/01/14 08:52:51;;;;;;;34.97;19.47;;;;;;;;;;5032071;28;20695;-59
2022/01/14 08:55:17;;;;;;;45.63;22.50;;;;;;;;;;5031475;28;20207;-59
2022/01/14 08:57:43;;;;;;;38.60;20.20;;;;;;;;;;5031720;28;20214;-59
2022/01/14 09:00:08;;;;;;;37.13;19.67;;;;;;;;;;5016720;28;20212;-60
2022/01/14 09:02:34;;;;;;;34.47;19.50;;;;;;;;;;5052189;28;20217;-59
2022/01/14 09:04:59;;;;;;;32.37;19.07;;;;;;;;;;5033598;28;20256;-59
2022/01/14 09:07:24;;;;;;;35.13;19.63;;;;;;;;;;5051410;28;20207;-59
2022/01/14 09:09:51;;;;;;;39.63;20.73;;;;;;;;;;5051807;28;20548;-59
2022/01/14 09:12:17;;;;;;;33.93;19.47;;;;;;;;;;5051137;28;20301;-59
2022/01/14 09:14:42;;;;;;;46.70;21.17;;;;;;;;;;5052390;28;20294;-59
2022/01/14 09:17:07;;;;;;;36.63;19.00;;;;;;;;;;5037808;28;20254;-60
2022/01/14 09:19:33;;;;;;;38.50;20.13;;;;;;;;;;5004728;28;20206;-59
2022/01/14 09:21:58;;;;;;;39.47;20.23;;;;;;;;;;5048552;28;20208;-59
2022/01/14 09:24:23;;;;;;;35.43;19.27;;;;;;;;;;5030797;28;20686;-60
2022/01/14 09:26:48;;;;;;;43.47;20.97;;;;;;;;;;5031914;28;20203;-59
2022/01/14 09:29:14;;;;;;;39.13;20.50;;;;;;;;;;5050958;28;20544;-59
2022/01/14 09:31:39;;;;;;;38.25;20.88;;;;;;;;;;5051413;28;20602;-59
2022/01/14 09:34:04;;;;;;;38.53;19.80;;;;;;;;;;5051477;28;20210;-59
2022/01/14 09:36:30;;;;;;;37.93;20.10;;;;;;;;;;5051635;28;20203;-59
2022/01/14 09:38:55;;;;;;;35.47;19.10;;;;;;;;;;5030393;28;20243;-59
2022/01/14 09:41:21;;;;;;;41.83;21.80;;;;;;;;;;5013496;28;20220;-59
2022/01/14 09:43:46;;;;;;;38.37;21.07;;;;;;;;;;5032281;28;20236;-59
2022/01/14 09:46:11;;;;;;;38.37;20.53;;;;;;;;;;5026405;28;20310;-59
2022/01/14 09:48:37;;;;;;;39.07;19.93;;;;;;;;;;5012244;28;20236;-59
2022/01/14 09:51:02;;;;;;;38.07;19.70;;;;;;;;;;5031128;28;20219;-60
2022/01/14 09:53:28;;;;;;;41.93;20.97;;;;;;;;;;5034328;28;20615;-59
2022/01/14 09:55:53;;;;;;;38.43;20.23;;;;;;;;;;5035593;28;20290;-60
2022/01/14 09:58:19;;;;;;;38.77;21.40;;;;;;;;;;5035222;28;20572;-58
2022/01/14 10:00:44;;;;;;;39.50;20.33;;;;;;;;;;5027218;28;20223;-59
2022/01/14 10:03:22;;;;;;;40.10;21.37;;;;;;;;;;5015350;28;20219;-59
2022/01/14 10:05:51;;;;;;;39.38;21.58;;;;;;;;;;5015769;28;20299;-59
2022/01/14 10:08:21;;;;;;;41.67;19.70;;;;;;;;;;5014153;28;20219;-59
2022/01/14 10:10:48;;;;;;;33.70;19.30;;;;;;;;;;5015514;28;20228;-59
2022/01/14 10:13:14;;;;;;;43.60;22.80;;;;;;;;;;4997440;28;20212;-59
2022/01/14 10:15:45;;;;;;;43.70;22.40;;;;;;;;;;5014429;28;20215;-59
2022/01/14 10:18:12;;;;;;;39.87;21.00;;;;;;;;;;5014888;28;20217;-59
2022/01/14 10:20:38;;;;;;;36.83;19.47;;;;;;;;;;5048909;23;20237;-59
2022/01/14 10:23:03;;;;;;;38.53;20.03;;;;;;;;;;4986177;28;20213;-59
2022/01/14 10:25:28;;;;;;;38.70;20.07;;;;;;;;;;4976168;28;20525;-59
2022/01/14 10:27:54;;;;;;;34.78;19.02;;;;;;;;;;4973733;28;20301;-59
2022/01/14 10:30:24;;;;;;;38.97;20.53;;;;;;;;;;4974792;28;20206;-60
2022/01/14 10:32:53;;;;;;;38.27;19.77;;;;;;;;;;4975947;28;20554;-59
2022/01/14 10:35:19;;;;;;;39.83;20.00;;;;;;;;;;4974389;28;20212;-59
2022/01/14 10:37:45;;;;;;;39.93;21.40;;;;;;;;;;4975816;28;20581;-59
2022/01/14 10:40:14;;;;;;;41.77;21.20;;;;;;;;;;4975814;28;20210;-59
2022/01/14 10:42:39;;;;;;;38.53;20.47;;;;;;;;;;4975444;28;20213;-59
2022/01/14 10:45:14;;;;;;;45.43;22.07;;;;;;;;;;4974341;28;20213;-60
2022/01/14 10:47:40;;;;;;;40.13;21.23;;;;;;;;;;4976282;28;20221;-59
2022/01/14 10:50:05;;;;;;;43.17;21.53;;;;;;;;;;4974510;28;20210;-59
2022/01/14 10:52:31;;;;;;;43.23;21.77;;;;;;;;;;4974944;28;20226;-59
2022/01/14 10:54:56;;;;;;;43.43;21.53;;;;;;;;;;4976081;28;20206;-59
2022/01/14 10:57:22;;;;;;;36.53;20.33;;;;;;;;;;4974576;28;20206;-58
2022/01/14 10:59:48;;;;;;;37.87;20.37;;;;;;;;;;4975757;28;20743;-59
2022/01/14 11:02:31;;;;;;;43.57;21.77;;;;;;;;;;4953389;28;20310;-59
2022/01/14 11:05:03;;;;;;;35.47;20.20;;;;;;;;;;4956325;28;20218;-59
2022/01/14 11:07:28;;;;;;;42.23;20.27;;;;;;;;;;4955924;28;20301;-59
2022/01/14 11:09:53;;;;;;;37.57;20.47;;;;;;;;;;4955644;28;20298;-59
2022/01/14 11:12:19;;;;;;;36.50;19.52;;;;;;;;;;4955617;28;20231;-59
2022/01/14 11:14:44;;;;;;;38.53;19.83;;;;;;;;;;4970879;28;20217;-59
2022/01/14 11:17:10;;;;;;;36.67;20.10;;;;;;;;;;4962461;28;20199;-60
2022/01/14 11:19:35;;;;;;;40.13;20.07;;;;;;;;;;4956281;28;20646;-60
2022/01/14 11:24:46;;;;;;;41.73;21.00;;;;;;;;;;5013408;28;20215;-59
2022/01/14 11:27:11;;;;;;;39.33;20.30;;;;;;;;;;4964696;28;20234;-59
2022/01/14 11:29:37;;;;;;;36.33;19.80;;;;;;;;;;4975443;28;20237;-67
2022/01/14 11:32:05;;;;;;;38.57;22.00;;;;;;;;;;4956765;28;20222;-62
2022/01/14 11:34:30;;;;;;;38.77;21.10;;;;;;;;;;4958141;28;20205;-59
2022/01/14 11:36:57;;;;;;;47.87;28.23;;;;;;;;;;4974769;28;20213;-59
2022/01/14 11:39:24;;;;;;;41.37;20.83;;;;;;;;;;4940330;28;20210;-59
2022/01/14 11:41:57;;;;;;;39.77;21.97;;;;;;;;;;5009598;28;20239;-59
2022/01/14 11:44:41;;;;;;;36.90;21.00;;;;;;;;;;4995770;28;20262;-59
2022/01/14 11:47:06;;;;;;;40.53;20.73;;;;;;;;;;5013400;28;20239;-59
2022/01/14 11:49:34;;;;;;;45.07;24.73;;;;;;;;;;5013605;28;20204;-59
2022/01/14 11:52:00;;;;;;;48.37;23.23;;;;;;;;;;5012843;28;20219;-59
2022/01/14 11:54:36;;;;;;;38.23;21.30;;;;;;;;;;5013346;28;20287;-59
2022/01/14 11:57:01;;;;;;;34.97;20.57;;;;;;;;;;5013397;28;20215;-59
2022/01/14 11:59:26;;;;;;;44.87;22.10;;;;;;;;;;5012741;28;20212;-59
2022/01/14 12:01:53;;;;;;;41.07;21.57;;;;;;;;;;4996931;28;20224;-59
2022/01/14 12:04:19;;;;;;;41.97;24.13;;;;;;;;;;4993617;28;20573;-59
2022/01/14 12:06:50;;;;;;;40.83;27.57;;;;;;;;;;4991840;28;20220;-59
2022/01/14 12:09:15;;;;;;;52.03;35.03;;;;;;;;;;4993718;28;20216;-59
2022/01/14 12:11:41;;;;;;;47.53;26.60;;;;;;;;;;5013582;28;20212;-59
2022/01/14 12:14:07;;;;;;;48.47;28.40;;;;;;;;;;4993197;28;20694;-59
2022/01/14 12:18:58;;;;;;;45.07;32.83;;;;;;;;;;4993439;28;20706;-59
2022/01/14 12:21:37;;;;;;;44.57;30.43;;;;;;;;;;4992057;28;20229;-60
2022/01/14 12:24:02;;;;;;;45.40;27.97;;;;;;;;;;4973666;28;20216;-59
2022/01/14 12:26:27;;;;;;;50.77;34.13;;;;;;;;;;4974387;28;20210;-58
2022/01/14 12:29:10;;;;;;;42.47;22.60;;;;;;;;;;4955827;28;20745;-59
2022/01/14 12:31:54;;;;;;;42.13;21.87;;;;;;;;;;4973680;28;20252;-58
2022/01/14 12:34:19;;;;;;;44.30;23.97;;;;;;;;;;4972729;28;20218;-58
2022/01/14 12:36:44;;;;;;;45.20;29.77;;;;;;;;;;4973570;28;20672;-58
2022/01/14 12:39:09;;;;;;;46.53;27.00;;;;;;;;;;4973495;28;20293;-58
2022/01/14 12:41:35;;;;;;;44.53;21.53;;;;;;;;;;4973220;28;20197;-58
2022/01/14 12:44:02;;;;;;;43.40;26.73;;;;;;;;;;4973758;28;20659;-58
2022/01/14 12:46:37;;;;;;;39.37;20.50;;;;;;;;;;4973825;28;20229;-58
2022/01/14 12:49:06;;;;;;;39.10;20.87;;;;;;;;;;4956560;28;20224;-58
2022/01/14 12:51:32;;;;;;;37.67;20.40;;;;;;;;;;4973605;28;20252;-58
2022/01/14 12:53:57;;;;;;;40.00;19.90;;;;;;;;;;4972836;28;20237;-58
2022/01/14 12:56:27;;;;;;;37.07;19.33;;;;;;;;;;4972087;28;20638;-58
2022/01/14 12:58:52;;;;;;;34.37;20.17;;;;;;;;;;4973405;28;20692;-58
2022/01/14 13:01:18;;;;;;;37.77;20.57;;;;;;;;;;4991060;28;20234;-59
2022/01/14 13:03:43;;;;;;;37.27;21.33;;;;;;;;;;4994484;28;20212;-58
2022/01/14 13:06:08;;;;;;;41.90;21.53;;;;;;;;;;4992358;28;20670;-59
2022/01/14 13:08:34;;;;;;;38.80;21.40;;;;;;;;;;5012466;28;20208;-59
2022/01/14 13:11:05;;;;;;;39.50;21.23;;;;;;;;;;5001792;28;20225;-59
2022/01/14 13:13:31;;;;;;;39.00;20.90;;;;;;;;;;4978204;28;20221;-58
2022/01/14 13:16:00;;;;;;;34.27;20.60;;;;;;;;;;4957549;28;20210;-59
2022/01/14 13:18:30;;;;;;;41.10;21.57;;;;;;;;;;4972443;28;20217;-59
2022/01/14 13:20:55;;;;;;;39.53;20.93;;;;;;;;;;4956418;28;20234;-58
2022/01/14 13:23:20;;;;;;;41.80;21.60;;;;;;;;;;4985097;28;20225;-59
2022/01/14 13:25:46;;;;;;;39.33;22.33;;;;;;;;;;4994008;28;20209;-59
2022/01/14 13:28:11;;;;;;;46.50;23.40;;;;;;;;;;4996508;28;20247;-58
2022/01/14 13:30:39;;;;;;;42.50;22.15;;;;;;;;;;4995003;28;20240;-59
2022/01/14 13:33:06;;;;;;;42.90;23.23;;;;;;;;;;4996662;28;20220;-58
2022/01/14 13:35:33;;;;;;;41.50;21.07;;;;;;;;;;4996494;28;20224;-58
2022/01/14 13:38:02;;;;;;;43.47;21.63;;;;;;;;;;4968528;28;20256;-58
2022/01/14 13:40:29;;;;;;;47.83;21.57;;;;;;;;;;4959642;28;20301;-59
2022/01/14 13:43:04;;;;;;;39.57;21.60;;;;;;;;;;4977425;28;20206;-58
2022/01/14 13:45:30;;;;;;;43.03;23.23;;;;;;;;;;4976083;28;20217;-59
2022/01/14 13:48:16;;;;;;;43.00;23.00;;;;;;;;;;4976855;28;20212;-66
2022/01/14 13:50:44;;;;;;;42.13;22.93;;;;;;;;;;4976588;28;20213;-67
2022/01/14 13:53:10;;;;;;;51.37;28.83;;;;;;;;;;4975756;28;20210;-66
2022/01/14 13:55:38;;;;;;;53.22;28.67;;;;;;;;;;4977022;28;20214;-66
2022/01/14 13:58:04;;;;;;;49.00;26.50;;;;;;;;;;4989162;28;20262;-66
2022/01/14 14:00:29;;;;;;;39.17;20.90;;;;;;;;;;5009381;28;20648;-66
2022/01/14 14:02:55;;;;;;;44.73;22.27;;;;;;;;;;4996401;28;20224;-66
2022/01/14 14:05:33;;;;;;;46.93;24.43;;;;;;;;;;4994613;28;20225;-66
2022/01/14 14:08:07;;;;;;;40.00;23.13;;;;;;;;;;4996282;28;20304;-60
2022/01/14 14:11:39;;;;;;;43.70;22.43;;;;;;;;;;4988867;28;20216;-60
2022/01/14 14:15:37;;;;;;;47.30;23.13;;;;;;;;;;4994678;28;20227;-60
2022/01/14 14:16:25;;;;;;;43.85;23.50;;;;;;;;;;4991507;28;20245;-60
2022/01/14 14:18:54;;;;;;;38.50;21.73;;;;;;;;;;4991313;28;20209;-60
2022/01/14 14:21:19;;;;;;;41.60;22.07;;;;;;;;;;4977060;28;20233;-60
2022/01/14 14:23:44;;;;;;;35.17;20.23;;;;;;;;;;4995572;28;20216;-60
2022/01/14 14:26:28;;;;;;;39.63;20.63;;;;;;;;;;5015182;28;20572;-60
2022/01/14 14:28:54;;;;;;;43.33;21.60;;;;;;;;;;4995979;28;20299;-60
2022/01/14 14:31:27;;;;;;;44.87;22.00;;;;;;;;;;4995112;28;20311;-60
2022/01/14 14:33:52;;;;;;;42.00;23.20;;;;;;;;;;4977506;28;20619;-60
2022/01/14 14:36:18;;;;;;;44.28;22.20;;;;;;;;;;4994696;28;20208;-60
2022/01/14 14:38:45;;;;;;;42.47;22.10;;;;;;;;;;4994612;28;20213;-61